createdAt,value
2022-11-06T00:01:17.091Z,101533.47
2022-11-06T00:03:52.196Z,101522.97
2022-11-06T00:06:43.915Z,101527.25
2022-11-06T00:09:19.717Z,101527.25
2022-11-06T00:11:53.103Z,101529.13
2022-11-06T00:14:25.188Z,101520.41
2022-11-06T00:16:57.180Z,101514.34
2022-11-06T00:19:31.551Z,101509.13
2022-11-06T00:22:03.613Z,101499.47
2022-11-06T00:24:35.522Z,101489.81
2022-11-06T00:27:07.579Z,101494.97
2022-11-06T00:29:39.598Z,101485.38
2022-11-06T00:32:11.619Z,101481.88
2022-11-06T00:34:43.571Z,101483.63
2022-11-06T00:37:15.565Z,101479.19
2022-11-06T00:39:47.516Z,101477.47
2022-11-06T00:42:19.534Z,101488.81
2022-11-06T00:44:51.464Z,101487.09
2022-11-06T00:47:23.677Z,101491.53
2022-11-06T00:49:55.650Z,101488.03
2022-11-06T00:52:31.716Z,101486.28
2022-11-06T00:55:03.753Z,101479.28
2022-11-06T00:57:35.776Z,101468.75
2022-11-06T01:00:08.583Z,101467.00
2022-11-06T01:02:40.836Z,101467.06
2022-11-06T01:05:16.231Z,101472.31
2022-11-06T01:07:48.267Z,101475.78
2022-11-06T01:10:20.296Z,101467.88
2022-11-06T01:12:52.191Z,101469.69
2022-11-06T01:15:24.075Z,101474.91
2022-11-06T01:17:56.060Z,101471.53
2022-11-06T01:20:28.013Z,101461.06
2022-11-06T01:23:00.035Z,101465.31
2022-11-06T01:25:31.999Z,101457.50
2022-11-06T01:28:04.238Z,101458.44
2022-11-06T01:30:39.263Z,101453.22
2022-11-06T01:33:11.175Z,101457.63
2022-11-06T01:35:51.300Z,101454.94
2022-11-06T01:38:23.469Z,101460.19
2022-11-06T01:40:55.698Z,101455.88
2022-11-06T01:43:50.196Z,101462.84
2022-11-06T01:46:26.556Z,101462.00
2022-11-06T01:49:10.615Z,101460.25
2022-11-06T01:51:49.844Z,101456.78
2022-11-06T01:54:25.637Z,101453.31
2022-11-06T01:57:00.394Z,101453.34
2022-11-06T01:59:36.541Z,101449.91
2022-11-06T02:02:08.777Z,101449.91
2022-11-06T02:04:49.475Z,101445.50
2022-11-06T02:07:21.808Z,101441.97
2022-11-06T02:09:53.776Z,101438.50
2022-11-06T02:12:39.683Z,101438.53
2022-11-06T02:15:21.445Z,101440.25
2022-11-06T02:18:29.050Z,101427.22
2022-11-06T02:22:00.270Z,101428.94
2022-11-06T02:25:09.141Z,101421.94
2022-11-06T02:27:52.137Z,101422.81
2022-11-06T02:30:24.378Z,101410.63
2022-11-06T02:33:14.155Z,101418.50
2022-11-06T02:36:10.799Z,101405.41
2022-11-06T02:38:51.751Z,101409.81
2022-11-06T02:41:30.976Z,101401.09
2022-11-06T02:44:09.850Z,101393.25
2022-11-06T02:46:56.180Z,101397.59
2022-11-06T02:49:56.015Z,101394.13
2022-11-06T02:52:40.725Z,101394.97
2022-11-06T02:55:26.436Z,101397.56
2022-11-06T02:58:10.038Z,101393.22
2022-11-06T03:00:50.166Z,101396.72
2022-11-06T03:03:27.315Z,101391.50
2022-11-06T03:06:08.032Z,101385.38
2022-11-06T03:08:48.210Z,101379.28
2022-11-06T03:11:35.870Z,101374.00
2022-11-06T03:14:41.148Z,101374.91
2022-11-06T03:17:23.699Z,101372.34
2022-11-06T03:20:06.946Z,101367.94
2022-11-06T03:22:53.064Z,101362.69
2022-11-06T03:25:33.800Z,101370.53
2022-11-06T03:28:32.778Z,101373.97
2022-11-06T03:31:13.055Z,101367.88
2022-11-06T03:33:55.888Z,101374.03
2022-11-06T03:36:53.866Z,101383.66
2022-11-06T03:39:40.363Z,101379.25
2022-11-06T03:42:19.918Z,101375.75
2022-11-06T03:44:58.807Z,101387.03
2022-11-06T03:47:37.738Z,101373.91
2022-11-06T03:50:28.981Z,101380.03
2022-11-06T03:53:41.886Z,101379.97
2022-11-06T03:57:05.251Z,101376.44
2022-11-06T03:59:44.464Z,101375.50
2022-11-06T04:02:19.860Z,101379.09
2022-11-06T04:04:58.730Z,101368.66
2022-11-06T04:07:39.371Z,101366.91
2022-11-06T04:10:31.281Z,101365.06
2022-11-06T04:13:21.555Z,101370.22
2022-11-06T04:15:55.152Z,101375.50
2022-11-06T04:18:27.101Z,101373.75
2022-11-06T04:21:31.374Z,101373.69
2022-11-06T04:24:28.302Z,101386.84
2022-11-06T04:27:34.112Z,101373.81
2022-11-06T04:30:09.474Z,101382.56
2022-11-06T04:33:17.848Z,101379.94
2022-11-06T04:36:42.903Z,101383.31
2022-11-06T04:39:55.644Z,101381.59
2022-11-06T04:43:01.112Z,101379.06
2022-11-06T04:45:47.028Z,101380.69
2022-11-06T04:48:20.666Z,101381.56
2022-11-06T04:50:59.014Z,101377.25
2022-11-06T04:53:32.473Z,101379.84
2022-11-06T04:56:16.474Z,101367.72
2022-11-06T04:58:52.059Z,101369.41
2022-11-06T05:01:24.326Z,101373.78
2022-11-06T05:03:56.549Z,101377.31
2022-11-06T05:06:30.208Z,101373.75
2022-11-06T05:09:02.512Z,101371.97
2022-11-06T05:11:34.585Z,101367.66
2022-11-06T05:14:06.706Z,101365.91
2022-11-06T05:16:38.785Z,101365.94
2022-11-06T05:19:10.790Z,101361.66
2022-11-06T05:22:01.419Z,101366.06
2022-11-06T05:24:33.454Z,101366.06
2022-11-06T05:27:05.748Z,101362.50
2022-11-06T05:29:37.862Z,101359.84
2022-11-06T05:32:10.014Z,101364.19
2022-11-06T05:34:42.612Z,101370.28
2022-11-06T05:37:14.610Z,101359.91
2022-11-06T05:39:46.567Z,101366.78
2022-11-06T05:42:18.660Z,101365.13
2022-11-06T05:44:50.610Z,101353.72
2022-11-06T05:47:22.540Z,101361.44
2022-11-06T05:49:54.526Z,101353.56
2022-11-06T05:52:26.828Z,101357.88
2022-11-06T05:54:58.874Z,101351.78
2022-11-06T05:57:30.832Z,101345.69
2022-11-06T06:00:04.848Z,101352.69
2022-11-06T06:02:37.707Z,101359.72
2022-11-06T06:05:10.347Z,101352.78
2022-11-06T06:07:42.631Z,101351.94
2022-11-06T06:10:14.782Z,101346.75
2022-11-06T06:12:46.934Z,101344.16
2022-11-06T06:15:19.211Z,101344.16
2022-11-06T06:17:51.194Z,101347.75
2022-11-06T06:20:23.159Z,101345.00
2022-11-06T06:22:56.683Z,101332.78
2022-11-06T06:25:30.184Z,101327.63
2022-11-06T06:28:02.326Z,101317.13
2022-11-06T06:30:35.924Z,101311.97
2022-11-06T06:33:07.999Z,101320.72
2022-11-06T06:35:40.105Z,101324.16
2022-11-06T06:38:12.470Z,101319.75
2022-11-06T06:40:44.594Z,101318.13
2022-11-06T06:43:16.608Z,101319.88
2022-11-06T06:45:49.015Z,101312.94
2022-11-06T06:48:21.087Z,101314.66
2022-11-06T06:50:53.213Z,101316.41
2022-11-06T06:53:25.653Z,101322.53
2022-11-06T06:56:02.317Z,101329.59
2022-11-06T06:58:34.668Z,101337.41
2022-11-06T07:01:10.528Z,101334.72
2022-11-06T07:03:42.557Z,101333.84
2022-11-06T07:06:14.835Z,101332.97
2022-11-06T07:08:46.939Z,101340.69
2022-11-06T07:11:18.845Z,101339.84
2022-11-06T07:13:51.047Z,101345.09
2022-11-06T07:16:23.600Z,101338.91
2022-11-06T07:18:55.903Z,101337.16
2022-11-06T07:21:27.821Z,101343.31
2022-11-06T07:23:59.936Z,101339.88
2022-11-06T07:26:31.937Z,101338.22
2022-11-06T07:29:04.145Z,101344.31
2022-11-06T07:31:36.181Z,101345.16
2022-11-06T07:34:08.167Z,101354.63
2022-11-06T07:36:40.075Z,101353.72
2022-11-06T07:39:12.348Z,101361.53
2022-11-06T07:41:44.496Z,101348.53
2022-11-06T07:44:16.532Z,101356.38
2022-11-06T07:46:48.494Z,101349.50
2022-11-06T07:49:20.390Z,101347.78
2022-11-06T07:51:52.600Z,101348.66
2022-11-06T07:54:24.665Z,101348.72
2022-11-06T07:56:57.510Z,101346.16
2022-11-06T07:59:29.475Z,101347.00
2022-11-06T08:02:01.541Z,101349.66
2022-11-06T08:04:33.624Z,101348.78
2022-11-06T08:07:06.120Z,101342.72
2022-11-06T08:09:38.116Z,101338.34
2022-11-06T08:12:10.145Z,101333.97
2022-11-06T08:14:42.092Z,101331.38
2022-11-06T08:17:14.163Z,101328.78
2022-11-06T08:19:46.213Z,101334.06
2022-11-06T08:22:19.250Z,101340.19
2022-11-06T08:24:51.188Z,101339.28
2022-11-06T08:27:23.295Z,101329.72
2022-11-06T08:29:55.253Z,101335.00
2022-11-06T08:32:28.890Z,101335.88
2022-11-06T08:35:00.813Z,101324.56
2022-11-06T08:37:32.883Z,101330.66
2022-11-06T08:40:05.808Z,101329.78
2022-11-06T08:42:37.888Z,101325.41
2022-11-06T08:45:10.725Z,101314.09
2022-11-06T08:47:42.679Z,101321.91
2022-11-06T08:50:14.682Z,101309.72
2022-11-06T08:52:46.787Z,101298.38
2022-11-06T08:55:18.769Z,101292.25
2022-11-06T08:57:50.640Z,101300.13
2022-11-06T09:00:23.300Z,101301.88
2022-11-06T09:03:00.101Z,101303.63
2022-11-06T09:05:32.537Z,101296.63
2022-11-06T09:08:04.895Z,101298.38
2022-11-06T09:10:42.142Z,101288.78
2022-11-06T09:13:14.630Z,101278.31
2022-11-06T09:15:46.756Z,101271.31
2022-11-06T09:18:18.685Z,101281.78
2022-11-06T09:20:58.182Z,101278.22
2022-11-06T09:23:30.215Z,101272.19
2022-11-06T09:26:02.159Z,101262.63
2022-11-06T09:28:34.061Z,101262.59
2022-11-06T09:31:06.631Z,101246.88
2022-11-06T09:33:38.685Z,101264.31
2022-11-06T09:36:10.686Z,101262.59
2022-11-06T09:38:42.646Z,101263.47
2022-11-06T09:41:54.506Z,101265.22
2022-11-06T09:45:02.688Z,101266.09
2022-11-06T09:47:38.828Z,101279.19
2022-11-06T09:50:25.424Z,101275.69
2022-11-06T09:53:07.648Z,101284.41
2022-11-06T09:55:43.282Z,101273.91
2022-11-06T09:58:28.698Z,101276.44
2022-11-06T10:01:24.596Z,101267.59
2022-11-06T10:04:00.939Z,101273.63
2022-11-06T10:06:33.691Z,101288.47
2022-11-06T10:09:07.347Z,101276.81
2022-11-06T10:12:08.222Z,101273.75
2022-11-06T10:14:57.401Z,101270.81
2022-11-06T10:18:05.749Z,101255.69
2022-11-06T10:20:54.286Z,101243.03
2022-11-06T10:23:39.129Z,101238.03
2022-11-06T10:26:17.453Z,101226.69
2022-11-06T10:29:22.517Z,101228.69
2022-11-06T10:32:28.602Z,101215.22
2022-11-06T10:35:23.555Z,101209.22
2022-11-06T10:38:05.851Z,101205.91
2022-11-06T10:40:39.603Z,101207.50
2022-11-06T10:43:36.385Z,101209.84
2022-11-06T10:46:36.521Z,101216.28
2022-11-06T10:49:29.500Z,101219.69
2022-11-06T10:52:16.530Z,101228.06
2022-11-06T10:55:32.213Z,101217.59
2022-11-06T10:58:13.174Z,101218.72
2022-11-06T11:00:45.709Z,101215.88
2022-11-06T11:03:37.316Z,101205.03
2022-11-06T11:06:09.663Z,101207.53
2022-11-06T11:08:53.595Z,101210.03
2022-11-06T11:11:28.715Z,101195.91
2022-11-06T11:14:03.615Z,101180.94
2022-11-06T11:16:40.517Z,101179.13
2022-11-06T11:19:42.036Z,101189.78
2022-11-06T11:22:16.898Z,101182.53
2022-11-06T11:25:08.098Z,101187.19
2022-11-06T11:27:45.483Z,101189.56
2022-11-06T11:30:23.492Z,101187.84
2022-11-06T11:33:00.013Z,101190.50
2022-11-06T11:35:32.186Z,101184.19
2022-11-06T11:38:14.208Z,101172.22
2022-11-06T11:40:46.543Z,101174.47
2022-11-06T11:43:28.913Z,101161.59
2022-11-06T11:46:10.389Z,101159.56
2022-11-06T11:48:57.916Z,101159.63
2022-11-06T11:51:38.817Z,101147.66
2022-11-06T11:54:13.882Z,101156.41
2022-11-06T11:57:04.704Z,101143.91
2022-11-06T11:59:48.806Z,101136.38
2022-11-06T12:02:34.335Z,101126.13
2022-11-06T12:05:12.779Z,101123.38
2022-11-06T12:07:51.979Z,101119.91
2022-11-06T12:10:35.720Z,101110.09
2022-11-06T12:13:18.253Z,101099.72
2022-11-06T12:15:54.531Z,101097.06
2022-11-06T12:18:47.223Z,101094.94
2022-11-06T12:21:34.271Z,101097.25
2022-11-06T12:24:27.659Z,101094.16
2022-11-06T12:27:12.086Z,101093.28
2022-11-06T12:30:05.549Z,101083.63
2022-11-06T12:32:42.146Z,101087.47
2022-11-06T12:35:22.844Z,101101.19
2022-11-06T12:38:06.804Z,101084.97
2022-11-06T12:40:49.634Z,101080.50
2022-11-06T12:43:35.871Z,101088.09
2022-11-06T12:46:21.969Z,101080.38
2022-11-06T12:49:33.774Z,101084.94
2022-11-06T12:52:41.562Z,101074.44
2022-11-06T12:55:33.724Z,101062.25
2022-11-06T12:58:30.656Z,101058.56
2022-11-06T13:01:46.833Z,101038.50
2022-11-06T13:04:52.281Z,101039.28
2022-11-06T13:08:06.281Z,101030.38
2022-11-06T13:11:03.611Z,101025.03
2022-11-06T13:13:46.117Z,101016.19
2022-11-06T13:17:25.456Z,101020.47
2022-11-06T13:20:25.085Z,101029.16
2022-11-06T13:23:17.109Z,101006.88
2022-11-06T13:26:13.395Z,100989.44
2022-11-06T13:28:56.114Z,100986.72
2022-11-06T13:31:47.570Z,100992.69
2022-11-06T13:34:26.734Z,100976.03
2022-11-06T13:37:00.143Z,100972.56
2022-11-06T13:40:04.551Z,100968.13
2022-11-06T13:42:44.847Z,100968.28
2022-11-06T13:45:17.202Z,100957.81
2022-11-06T13:48:19.834Z,100958.50
2022-11-06T13:51:03.289Z,100946.81
2022-11-06T13:54:04.374Z,100942.53
2022-11-06T13:57:16.505Z,100945.38
2022-11-06T14:00:00.371Z,100947.09
2022-11-06T14:03:10.367Z,100946.59
2022-11-06T14:06:01.918Z,100945.81
2022-11-06T14:08:46.406Z,100940.38
2022-11-06T14:11:31.697Z,100942.31
2022-11-06T14:14:28.796Z,100933.84
2022-11-06T14:17:15.941Z,100929.31
2022-11-06T14:19:51.253Z,100924.97
2022-11-06T14:22:36.902Z,100920.72
2022-11-06T14:25:41.144Z,100916.56
2022-11-06T14:28:37.261Z,100927.22
2022-11-06T14:31:12.650Z,100910.63
2022-11-06T14:33:51.537Z,100912.31
2022-11-06T14:36:34.936Z,100914.06
2022-11-06T14:39:11.128Z,100912.59
2022-11-06T14:42:02.077Z,100912.66
2022-11-06T14:44:41.561Z,100908.31
2022-11-06T14:47:36.628Z,100911.84
2022-11-06T14:50:43.033Z,100917.06
2022-11-06T14:53:32.160Z,100934.88
2022-11-06T14:56:10.212Z,100930.66
2022-11-06T14:58:51.479Z,100934.88
2022-11-06T15:01:32.032Z,100920.13
2022-11-06T15:04:14.913Z,100928.06
2022-11-06T15:06:51.976Z,100930.66
2022-11-06T15:09:23.848Z,100935.13
2022-11-06T15:12:02.228Z,100937.91
2022-11-06T15:14:34.086Z,100938.81
2022-11-06T15:17:14.322Z,100949.38
2022-11-06T15:20:21.978Z,100942.34
2022-11-06T15:23:27.365Z,100933.50
2022-11-06T15:26:27.902Z,100933.63
2022-11-06T15:29:17.199Z,100944.84
2022-11-06T15:31:53.737Z,100937.06
2022-11-06T15:34:37.348Z,100942.34
2022-11-06T15:37:24.502Z,100934.50
2022-11-06T15:40:01.322Z,100932.81
2022-11-06T15:42:38.455Z,100929.34
2022-11-06T15:45:23.975Z,100929.38
2022-11-06T15:47:59.005Z,100918.97
2022-11-06T15:50:33.248Z,100921.59
2022-11-06T15:53:14.729Z,100921.66
2022-11-06T15:56:05.489Z,100913.75
2022-11-06T15:58:38.280Z,100913.00
2022-11-06T16:01:11.913Z,100904.44
2022-11-06T16:03:54.844Z,100908.78
2022-11-06T16:06:26.988Z,100901.81
2022-11-06T16:09:00.629Z,100897.53
2022-11-06T16:11:34.545Z,100897.63
2022-11-06T16:14:11.580Z,100887.03
2022-11-06T16:16:52.633Z,100876.53
2022-11-06T16:19:44.773Z,100878.22
2022-11-06T16:22:37.030Z,100872.22
2022-11-06T16:25:18.716Z,100863.66
2022-11-06T16:27:51.059Z,100863.59
2022-11-06T16:30:25.572Z,100862.59
2022-11-06T16:32:57.793Z,100861.81
2022-11-06T16:35:35.945Z,100858.38
2022-11-06T16:38:39.899Z,100858.28
2022-11-06T16:41:11.185Z,100855.72
2022-11-06T16:43:43.439Z,100859.25
2022-11-06T16:46:15.477Z,100841.03
2022-11-06T16:48:47.543Z,100833.16
2022-11-06T16:51:34.014Z,100835.00
2022-11-06T16:54:06.026Z,100841.94
2022-11-06T16:56:38.080Z,100842.78
2022-11-06T16:59:16.774Z,100849.84
2022-11-06T17:01:49.046Z,100854.16
2022-11-06T17:04:26.299Z,100849.00
2022-11-06T17:06:59.137Z,100843.63
2022-11-06T17:09:33.686Z,100852.47
2022-11-06T17:12:10.983Z,100849.84
2022-11-06T17:14:44.748Z,100840.13
2022-11-06T17:17:26.692Z,100835.69
2022-11-06T17:19:58.684Z,100837.41
2022-11-06T17:22:31.192Z,100835.88
2022-11-06T17:25:03.303Z,100832.34
2022-11-06T17:27:35.239Z,100830.53
2022-11-06T17:30:13.846Z,100824.47
2022-11-06T17:32:45.893Z,100820.97
2022-11-06T17:35:17.992Z,100820.09
2022-11-06T17:37:50.037Z,100814.75
2022-11-06T17:40:22.027Z,100813.16
2022-11-06T17:42:53.981Z,100807.13
2022-11-06T17:45:26.150Z,100801.03
2022-11-06T17:47:58.423Z,100810.63
2022-11-06T17:50:31.782Z,100807.97
2022-11-06T17:53:03.692Z,100801.03
2022-11-06T17:55:35.754Z,100805.38
2022-11-06T17:58:07.762Z,100796.66
2022-11-06T18:00:39.799Z,100800.06
2022-11-06T18:03:22.879Z,100793.16
2022-11-06T18:05:54.948Z,100781.81
2022-11-06T18:08:26.989Z,100777.47
2022-11-06T18:10:59.043Z,100776.59
2022-11-06T18:13:31.580Z,100780.94
2022-11-06T18:16:04.785Z,100767.88
2022-11-06T18:18:36.744Z,100766.97
2022-11-06T18:21:08.957Z,100763.44
2022-11-06T18:23:40.941Z,100762.66
2022-11-06T18:26:14.154Z,100759.97
2022-11-06T18:28:46.282Z,100752.16
2022-11-06T18:31:19.255Z,100752.06
2022-11-06T18:33:51.300Z,100749.47
2022-11-06T18:36:23.488Z,100744.28
2022-11-06T18:38:55.505Z,100759.97
2022-11-06T18:41:27.807Z,100753.91
2022-11-06T18:44:01.119Z,100758.19
2022-11-06T18:46:33.187Z,100755.50
2022-11-06T18:49:05.172Z,100751.03
2022-11-06T18:51:37.280Z,100747.44
2022-11-06T18:54:11.896Z,100733.44
2022-11-06T18:56:44.101Z,100741.44
2022-11-06T18:59:19.741Z,100737.81
2022-11-06T19:01:53.212Z,100745.72
2022-11-06T19:04:27.924Z,100727.72
2022-11-06T19:06:59.993Z,100741.03
2022-11-06T19:09:31.944Z,100738.56
2022-11-06T19:12:04.130Z,100729.22
2022-11-06T19:14:36.058Z,100737.13
2022-11-06T19:17:08.149Z,100733.84
2022-11-06T19:19:40.223Z,100736.56
2022-11-06T19:22:12.516Z,100735.75
2022-11-06T19:24:44.471Z,100733.13
2022-11-06T19:27:16.647Z,100738.38
2022-11-06T19:29:48.740Z,100736.66
2022-11-06T19:32:20.795Z,100736.69
2022-11-06T19:34:54.230Z,100735.88
2022-11-06T19:37:29.789Z,100752.44
2022-11-06T19:40:06.093Z,100750.72
2022-11-06T19:42:42.077Z,100735.97
2022-11-06T19:45:14.395Z,100731.66
2022-11-06T19:47:46.990Z,100738.59
2022-11-06T19:50:33.177Z,100736.00
2022-11-06T19:53:12.313Z,100738.56
2022-11-06T19:55:44.872Z,100739.44
2022-11-06T19:58:22.139Z,100721.19
2022-11-06T20:00:56.849Z,100709.03
2022-11-06T20:03:29.715Z,100686.44
2022-11-06T20:06:07.958Z,100673.44
2022-11-06T20:08:41.182Z,100667.34
2022-11-06T20:11:15.811Z,100654.31
2022-11-06T20:13:48.207Z,100648.25
2022-11-06T20:16:27.644Z,100655.19
2022-11-06T20:19:13.906Z,100651.72
2022-11-06T20:21:46.103Z,100656.94
2022-11-06T20:24:18.681Z,100660.41
2022-11-06T20:26:50.991Z,100649.09
2022-11-06T20:29:31.777Z,100660.41
2022-11-06T20:32:04.127Z,100663.88
2022-11-06T20:34:36.666Z,100660.41
2022-11-06T20:37:12.430Z,100668.22
2022-11-06T20:39:45.659Z,100679.50
2022-11-06T20:42:18.704Z,100663.88
2022-11-06T20:44:53.061Z,100669.94
2022-11-06T20:47:25.807Z,100663.88
2022-11-06T20:49:58.493Z,100672.53
2022-11-06T20:52:30.704Z,100673.44
2022-11-06T20:55:03.401Z,100677.78
2022-11-06T20:57:35.508Z,100676.03
2022-11-06T21:00:09.295Z,100676.91
2022-11-06T21:02:41.332Z,100685.59
2022-11-06T21:05:15.107Z,100689.06
2022-11-06T21:07:47.447Z,100677.75
2022-11-06T21:10:19.502Z,100679.50
2022-11-06T21:12:51.626Z,100660.38
2022-11-06T21:15:23.870Z,100661.22
2022-11-06T21:17:55.999Z,100660.34
2022-11-06T21:20:28.729Z,100667.31
2022-11-06T21:23:00.709Z,100658.63
2022-11-06T21:25:32.982Z,100653.38
2022-11-06T21:28:05.110Z,100665.50
2022-11-06T21:30:45.106Z,100662.00
2022-11-06T21:33:17.189Z,100673.31
2022-11-06T21:35:49.375Z,100657.66
2022-11-06T21:38:21.625Z,100655.03
2022-11-06T21:40:53.644Z,100655.84
2022-11-06T21:43:29.615Z,100654.16
2022-11-06T21:46:06.717Z,100649.75
2022-11-06T21:48:46.387Z,100654.16
2022-11-06T21:51:22.121Z,100662.81
2022-11-06T21:54:14.169Z,100648.91
2022-11-06T21:56:51.121Z,100654.16
2022-11-06T21:59:27.421Z,100650.66
2022-11-06T22:01:59.674Z,100645.44
2022-11-06T22:04:31.707Z,100637.56
2022-11-06T22:07:04.151Z,100629.72
2022-11-06T22:09:36.156Z,100641.94
2022-11-06T22:12:08.195Z,100639.28
2022-11-06T22:14:40.188Z,100624.44
2022-11-06T22:17:12.312Z,100639.19
2022-11-06T22:19:45.134Z,100631.41
2022-11-06T22:22:17.096Z,100631.38
2022-11-06T22:24:49.138Z,100634.84
2022-11-06T22:27:21.375Z,100632.22
2022-11-06T22:29:53.389Z,100642.66
2022-11-06T22:32:25.561Z,100643.53
2022-11-06T22:34:57.501Z,100645.25
2022-11-06T22:37:29.589Z,100642.59
2022-11-06T22:40:01.524Z,100649.56
2022-11-06T22:42:33.544Z,100644.34
2022-11-06T22:45:06.320Z,100633.03
2022-11-06T22:47:38.668Z,100641.72
2022-11-06T22:50:10.680Z,100640.81
2022-11-06T22:52:42.779Z,100640.00
2022-11-06T22:55:14.845Z,100640.81
2022-11-06T22:57:46.787Z,100645.16
2022-11-06T23:00:23.190Z,100653.00
2022-11-06T23:02:55.585Z,100651.22
2022-11-06T23:05:27.647Z,100659.94
2022-11-06T23:07:59.650Z,100659.97
2022-11-06T23:10:32.789Z,100666.09
2022-11-06T23:13:05.872Z,100669.50
2022-11-06T23:15:38.428Z,100664.22
2022-11-06T23:18:12.764Z,100672.06
2022-11-06T23:20:44.751Z,100672.94
2022-11-06T23:23:17.178Z,100676.31
2022-11-06T23:25:49.278Z,100680.69
2022-11-06T23:28:21.324Z,100678.13
2022-11-06T23:30:53.199Z,100675.53
2022-11-06T23:33:25.270Z,100675.56
2022-11-06T23:35:57.202Z,100678.19
2022-11-06T23:38:29.207Z,100677.28
2022-11-06T23:41:31.640Z,100680.75
2022-11-06T23:44:04.290Z,100672.81
2022-11-06T23:46:36.645Z,100678.94
2022-11-06T23:49:08.656Z,100681.53
2022-11-06T23:51:40.710Z,100669.28
2022-11-06T23:54:12.713Z,100668.41
2022-11-06T23:56:44.728Z,100678.88
2022-11-06T23:59:16.832Z,100670.13
